Time;durP1;ratioP1;P1;durP2;ratioP2;P2;SDS_P1;SDS_P2;PMS_P1;PMS_P2;Temp;Humidity;BMP_temperature;BMP_pressure;BME280_temperature;BME280_humidity;BME280_pressure;Samples;Min_cycle;Max_cycle;Signal;HPM_P1;HPM_P2
2021/11/26 00:00:47;;;;;;;944.43;862.90;;;4.40;99.90;;;;;;4915909;29;21028;-82
2021/11/26 00:03:14;;;;;;;936.37;854.40;;;4.30;99.90;;;;;;4917167;29;20490;-83
2021/11/26 00:05:41;;;;;;;940.47;857.80;;;4.30;99.90;;;;;;4916826;29;20461;-83
2021/11/26 00:08:07;;;;;;;946.43;863.77;;;4.30;99.90;;;;;;4918916;29;20461;-83
2021/11/26 00:10:34;;;;;;;958.03;874.60;;;4.30;99.90;;;;;;4920303;29;20488;-82
2021/11/26 00:13:05;;;;;;;959.53;877.17;;;4.30;99.90;;;;;;4920445;29;20456;-83
2021/11/26 00:15:39;;;;;;;966.00;879.70;;;4.40;99.90;;;;;;4920852;29;20843;-82
2021/11/26 00:18:09;;;;;;;954.10;868.87;;;4.30;99.90;;;;;;4920400;29;20818;-83
2021/11/26 00:20:37;;;;;;;957.47;871.53;;;4.40;99.90;;;;;;4919595;29;21004;-82
2021/11/26 00:23:06;;;;;;;951.87;867.17;;;4.50;99.90;;;;;;4919865;29;21028;-83
2021/11/26 00:25:33;;;;;;;951.33;867.13;;;4.40;99.90;;;;;;4919608;29;20540;-83
2021/11/26 00:28:01;;;;;;;961.20;874.93;;;4.50;99.90;;;;;;4920085;29;20837;-83
2021/11/26 00:30:29;;;;;;;963.87;880.60;;;4.50;99.90;;;;;;4919828;29;20533;-82
2021/11/26 00:32:56;;;;;;;972.03;889.00;;;4.50;99.90;;;;;;4919930;29;20461;-83
2021/11/26 00:35:22;;;;;;;967.80;885.00;;;4.50;99.90;;;;;;4920071;29;21049;-83
2021/11/26 00:37:49;;;;;;;969.60;885.50;;;4.40;99.90;;;;;;4919790;29;20454;-82
2021/11/26 00:40:16;;;;;;;955.00;872.03;;;4.50;99.90;;;;;;4919201;29;20466;-82
2021/11/26 00:42:43;;;;;;;978.80;893.30;;;4.40;99.90;;;;;;4919702;29;20469;-83
2021/11/26 00:45:13;;;;;;;956.93;873.40;;;4.40;99.90;;;;;;4919864;29;20465;-83
2021/11/26 00:47:41;;;;;;;962.03;879.20;;;4.50;99.90;;;;;;4919645;29;20464;-83
2021/11/26 00:50:10;;;;;;;957.83;873.60;;;4.40;99.90;;;;;;4918980;29;20462;-81
2021/11/26 00:52:37;;;;;;;959.90;876.60;;;4.40;99.90;;;;;;4919224;29;20461;-83
2021/11/26 00:55:05;;;;;;;955.10;869.87;;;4.40;99.90;;;;;;4919672;29;20458;-82
2021/11/26 00:57:32;;;;;;;965.70;881.20;;;4.40;99.90;;;;;;4919426;29;20457;-83
2021/11/26 00:59:59;;;;;;;960.37;877.07;;;4.40;99.90;;;;;;4919529;29;20470;-82
2021/11/26 01:02:27;;;;;;;961.23;876.77;;;4.40;99.90;;;;;;4918851;29;20552;-83
2021/11/26 01:04:54;;;;;;;954.50;871.50;;;4.40;99.90;;;;;;4919248;29;20490;-83
2021/11/26 01:07:20;;;;;;;955.40;873.00;;;4.40;99.90;;;;;;4918888;29;20453;-83
2021/11/26 01:09:47;;;;;;;936.53;855.13;;;4.40;99.90;;;;;;4918706;29;20457;-82
2021/11/26 01:12:14;;;;;;;942.20;861.63;;;4.40;99.90;;;;;;4918573;29;20485;-82
2021/11/26 01:14:41;;;;;;;930.77;851.73;;;4.40;99.90;;;;;;4918368;29;20460;-83
2021/11/26 01:17:08;;;;;;;928.90;849.50;;;4.40;99.90;;;;;;4918404;29;20950;-83
2021/11/26 01:19:36;;;;;;;945.47;867.00;;;4.30;99.90;;;;;;4918171;29;20461;-83
2021/11/26 01:22:03;;;;;;;933.43;854.53;;;4.30;99.90;;;;;;4918367;29;20520;-83
2021/11/26 01:24:30;;;;;;;918.93;841.17;;;4.30;99.90;;;;;;4918514;29;20482;-83
2021/11/26 01:26:58;;;;;;;924.43;846.90;;;4.30;99.90;;;;;;4918904;29;20853;-83
2021/11/26 01:29:25;;;;;;;923.50;844.70;;;4.20;99.90;;;;;;4918306;29;20466;-83
2021/11/26 01:31:52;;;;;;;916.80;839.97;;;4.20;99.90;;;;;;4918170;29;20474;-82
2021/11/26 01:34:19;;;;;;;930.70;853.27;;;4.10;99.90;;;;;;4917650;29;20450;-82
2021/11/26 01:36:49;;;;;;;929.70;852.20;;;4.00;99.90;;;;;;4918295;29;20461;-83
2021/11/26 01:39:16;;;;;;;936.00;854.97;;;3.90;99.90;;;;;;4918301;29;20631;-83
2021/11/26 01:41:43;;;;;;;938.47;858.87;;;3.80;99.90;;;;;;4917944;29;20482;-83
2021/11/26 01:44:10;;;;;;;927.07;847.83;;;3.80;99.90;;;;;;4917804;29;20486;-83
2021/11/26 01:46:40;;;;;;;924.30;843.60;;;3.70;99.90;;;;;;4918594;29;20464;-83
2021/11/26 01:49:07;;;;;;;917.63;837.43;;;3.70;99.90;;;;;;4918548;29;20521;-83
2021/11/26 01:51:33;;;;;;;930.63;848.37;;;3.60;99.90;;;;;;4917596;29;20481;-82
2021/11/26 01:54:02;;;;;;;917.73;835.10;;;3.60;99.90;;;;;;4917889;29;20458;-83
2021/11/26 01:56:28;;;;;;;926.50;844.70;;;3.50;99.90;;;;;;4917703;29;20458;-83
2021/11/26 01:58:56;;;;;;;924.77;841.50;;;3.40;99.90;;;;;;4918411;29;20462;-83
2021/11/26 02:01:24;;;;;;;931.43;846.50;;;3.40;99.90;;;;;;4917791;29;20488;-83
2021/11/26 02:03:51;;;;;;;938.17;851.17;;;3.40;99.90;;;;;;4918078;29;20481;-83
2021/11/26 02:06:18;;;;;;;935.37;850.27;;;3.30;99.90;;;;;;4917804;29;20458;-83
2021/11/26 02:08:46;;;;;;;936.27;849.20;;;3.20;99.90;;;;;;4918697;29;20462;-83
2021/11/26 02:11:14;;;;;;;946.93;859.27;;;3.30;99.90;;;;;;4918164;29;20488;-82
2021/11/26 02:13:42;;;;;;;939.47;851.07;;;3.30;99.90;;;;;;4918088;29;20950;-83
2021/11/26 02:16:09;;;;;;;943.00;855.00;;;3.20;99.90;;;;;;4918325;29;20457;-83
2021/11/26 02:18:36;;;;;;;937.40;847.50;;;3.30;99.90;;;;;;4917875;29;20465;-83
2021/11/26 02:21:05;;;;;;;939.70;849.40;;;3.40;99.90;;;;;;4917361;29;20481;-83
2021/11/26 02:23:32;;;;;;;924.27;834.93;;;3.40;99.90;;;;;;4917739;29;20486;-83
2021/11/26 02:25:58;;;;;;;927.77;838.93;;;3.40;99.90;;;;;;4917983;29;20461;-83
2021/11/26 02:28:25;;;;;;;926.83;838.13;;;3.60;99.90;;;;;;4917843;29;20497;-83
2021/11/26 02:30:52;;;;;;;914.60;826.63;;;3.60;99.90;;;;;;4916592;29;20998;-83
2021/11/26 02:33:21;;;;;;;930.37;840.37;;;3.70;99.90;;;;;;4918388;29;20462;-83
2021/11/26 02:35:54;;;;;;;924.37;838.37;;;3.70;99.90;;;;;;4918297;29;20458;-83
2021/11/26 02:38:24;;;;;;;919.47;835.87;;;3.80;99.90;;;;;;4917304;29;20460;-83
2021/11/26 02:40:51;;;;;;;913.63;830.37;;;3.80;99.90;;;;;;4917060;29;21028;-83
2021/11/26 02:43:19;;;;;;;907.00;824.07;;;3.90;99.90;;;;;;4917781;29;20469;-83
2021/11/26 02:45:47;;;;;;;913.63;831.50;;;3.80;99.90;;;;;;4917817;29;20938;-82
2021/11/26 02:48:15;;;;;;;919.30;838.07;;;3.90;99.90;;;;;;4917334;29;20464;-83
2021/11/26 02:50:43;;;;;;;916.47;835.90;;;3.90;99.90;;;;;;4917000;29;20481;-83
2021/11/26 02:53:10;;;;;;;903.73;824.53;;;3.80;99.90;;;;;;4917393;29;20958;-83
2021/11/26 02:55:39;;;;;;;910.73;832.33;;;3.90;99.90;;;;;;4917923;29;20464;-83
2021/11/26 02:58:07;;;;;;;898.63;820.50;;;3.90;99.90;;;;;;4917415;29;20465;-83
2021/11/26 03:00:35;;;;;;;894.23;817.77;;;4.00;99.90;;;;;;4917566;29;20857;-83
2021/11/26 03:03:02;;;;;;;897.67;822.27;;;3.90;99.90;;;;;;4917754;29;20468;-83
2021/11/26 03:05:29;;;;;;;887.43;812.83;;;4.00;99.90;;;;;;4917411;29;20488;-83
2021/11/26 03:07:56;;;;;;;880.27;806.57;;;4.00;99.90;;;;;;4917786;29;20462;-83
2021/11/26 03:10:24;;;;;;;880.77;807.17;;;4.00;99.90;;;;;;4917624;29;20488;-82
2021/11/26 03:12:54;;;;;;;883.70;810.57;;;4.00;99.90;;;;;;4916703;29;20496;-83
2021/11/26 03:15:22;;;;;;;880.60;808.97;;;4.00;99.90;;;;;;4917681;29;20454;-83
2021/11/26 03:17:49;;;;;;;872.67;802.40;;;4.10;99.90;;;;;;4917661;29;20500;-83
2021/11/26 03:20:15;;;;;;;875.50;806.40;;;4.10;99.90;;;;;;4917679;29;20464;-82
2021/11/26 03:22:43;;;;;;;872.93;804.67;;;4.10;99.90;;;;;;4917191;29;20457;-83
2021/11/26 03:25:11;;;;;;;876.80;807.97;;;4.10;99.90;;;;;;4917470;29;20474;-83
2021/11/26 03:27:38;;;;;;;869.50;802.43;;;4.10;99.90;;;;;;4918345;29;20454;-83
2021/11/26 03:30:09;;;;;;;869.93;803.23;;;4.10;99.90;;;;;;4918321;29;20464;-82
2021/11/26 03:32:36;;;;;;;873.10;808.73;;;4.20;99.90;;;;;;4918189;29;20458;-83
2021/11/26 03:35:03;;;;;;;856.13;792.10;;;4.10;99.90;;;;;;4917792;29;20454;-83
2021/11/26 03:37:30;;;;;;;865.53;800.37;;;4.10;99.90;;;;;;4917120;29;20469;-83
2021/11/26 03:39:56;;;;;;;856.23;791.20;;;4.10;99.90;;;;;;4917211;29;20966;-83
2021/11/26 03:42:23;;;;;;;851.80;787.20;;;4.10;99.90;;;;;;4917876;29;20858;-83
2021/11/26 03:44:50;;;;;;;848.33;784.30;;;4.00;99.90;;;;;;4921936;29;20501;-83
2021/11/26 03:47:18;;;;;;;856.23;791.73;;;4.10;99.90;;;;;;4921165;29;20466;-83
2021/11/26 03:49:45;;;;;;;852.77;788.77;;;4.20;99.90;;;;;;4921297;29;20837;-82
2021/11/26 03:52:12;;;;;;;853.97;789.43;;;4.20;99.90;;;;;;4920603;29;20491;-83
2021/11/26 03:54:40;;;;;;;854.47;789.67;;;4.10;99.90;;;;;;4919824;29;20458;-83
2021/11/26 03:57:08;;;;;;;845.20;782.20;;;4.20;99.90;;;;;;4921352;29;20969;-84
2021/11/26 03:59:34;;;;;;;849.70;786.10;;;4.20;99.90;;;;;;4921459;29;20579;-83
2021/11/26 04:02:01;;;;;;;849.13;785.90;;;4.20;99.90;;;;;;4920590;29;20477;-83
2021/11/26 04:04:30;;;;;;;849.80;786.33;;;4.20;99.90;;;;;;4919839;29;20481;-82
2021/11/26 04:06:57;;;;;;;853.27;790.20;;;4.30;99.90;;;;;;4920184;29;20488;-83
2021/11/26 04:09:24;;;;;;;848.37;785.60;;;4.20;99.90;;;;;;4920060;29;20461;-83
2021/11/26 04:11:51;;;;;;;848.00;785.20;;;4.30;99.90;;;;;;4919881;29;20585;-83
2021/11/26 04:14:17;;;;;;;842.10;779.53;;;4.30;99.90;;;;;;4920556;29;20450;-83
2021/11/26 04:16:46;;;;;;;820.57;760.47;;;4.30;99.90;;;;;;4922150;29;20464;-83
2021/11/26 04:19:13;;;;;;;841.03;774.03;;;4.30;99.90;;;;;;4920195;29;20461;-83
2021/11/26 04:21:41;;;;;;;846.20;778.63;;;4.30;99.90;;;;;;4920835;29;20481;-82
2021/11/26 04:24:08;;;;;;;867.13;797.87;;;4.20;99.90;;;;;;4920783;29;20584;-83
2021/11/26 04:26:35;;;;;;;868.53;797.97;;;4.20;99.90;;;;;;4920370;29;20480;-83
2021/11/26 04:29:02;;;;;;;881.07;808.70;;;4.20;99.90;;;;;;4920350;29;20460;-83
2021/11/26 04:31:29;;;;;;;903.03;828.60;;;4.20;99.90;;;;;;4919160;29;20478;-82
2021/11/26 04:33:56;;;;;;;914.70;837.20;;;4.20;99.90;;;;;;4920743;29;20469;-82
2021/11/26 04:36:23;;;;;;;920.57;841.90;;;4.20;99.90;;;;;;4919412;29;21152;-82
2021/11/26 04:38:52;;;;;;;916.97;836.70;;;4.20;99.90;;;;;;4919470;29;20462;-82
2021/11/26 04:41:18;;;;;;;926.67;844.43;;;4.20;99.90;;;;;;4919092;29;20504;-82
2021/11/26 04:43:45;;;;;;;928.90;847.70;;;4.10;99.90;;;;;;4919807;29;20542;-82
2021/11/26 04:46:12;;;;;;;927.90;844.93;;;4.20;99.90;;;;;;4920506;29;20490;-82
2021/11/26 04:48:39;;;;;;;928.87;848.37;;;4.20;99.90;;;;;;4921596;29;20497;-83
2021/11/26 04:51:09;;;;;;;920.77;839.20;;;4.10;99.90;;;;;;4921215;29;20873;-83
2021/11/26 04:53:36;;;;;;;935.53;852.37;;;4.20;99.90;;;;;;4921431;29;20454;-83
2021/11/26 04:56:07;;;;;;;948.93;863.90;;;4.10;99.90;;;;;;4921399;29;20517;-83
2021/11/26 04:58:35;;;;;;;939.60;855.10;;;4.20;99.90;;;;;;4922852;29;20493;-83
2021/11/26 05:01:03;;;;;;;935.00;849.50;;;4.20;99.90;;;;;;4921362;29;21041;-83
2021/11/26 05:03:30;;;;;;;930.00;844.60;;;4.20;99.90;;;;;;4922248;29;20478;-83
2021/11/26 05:05:57;;;;;;;934.47;848.77;;;4.20;99.90;;;;;;4922681;29;20481;-83
2021/11/26 05:08:25;;;;;;;941.23;855.87;;;4.20;99.90;;;;;;4923200;29;20463;-83
2021/11/26 05:10:54;;;;;;;933.07;848.10;;;4.30;99.90;;;;;;4922852;29;21009;-83
2021/11/26 05:13:25;;;;;;;939.03;854.80;;;4.20;99.90;;;;;;4921659;29;20497;-83
2021/11/26 05:15:53;;;;;;;927.43;843.53;;;4.20;99.90;;;;;;4922318;29;20461;-83
2021/11/26 05:18:24;;;;;;;938.73;855.03;;;4.30;99.90;;;;;;4921500;29;20466;-83
2021/11/26 05:20:54;;;;;;;927.43;843.93;;;4.30;99.90;;;;;;4922380;29;20466;-83
2021/11/26 05:23:22;;;;;;;933.83;850.87;;;4.30;99.90;;;;;;4922444;29;20517;-83
2021/11/26 05:25:49;;;;;;;912.93;830.03;;;4.30;99.90;;;;;;4921730;29;20477;-83
2021/11/26 05:28:17;;;;;;;908.70;826.90;;;4.30;99.90;;;;;;4918362;29;20876;-83
2021/11/26 05:30:46;;;;;;;907.67;825.87;;;4.20;99.90;;;;;;4917525;29;20477;-84
2021/11/26 05:33:13;;;;;;;919.33;837.87;;;4.30;99.90;;;;;;4917730;29;20464;-83
2021/11/26 05:35:39;;;;;;;908.10;827.23;;;4.20;99.90;;;;;;4918126;29;20461;-82
2021/11/26 05:38:06;;;;;;;912.47;831.93;;;4.30;99.90;;;;;;4917700;29;20869;-83
2021/11/26 05:40:33;;;;;;;915.43;834.37;;;4.30;99.90;;;;;;4917531;29;20474;-82
2021/11/26 05:43:00;;;;;;;895.33;812.93;;;4.30;99.90;;;;;;4917619;29;20469;-82
2021/11/26 05:45:27;;;;;;;897.57;815.53;;;4.30;99.90;;;;;;4917954;29;20490;-83
2021/11/26 05:47:56;;;;;;;872.40;791.90;;;4.30;99.90;;;;;;4917915;29;20453;-83
2021/11/26 05:50:24;;;;;;;882.30;800.77;;;4.30;99.90;;;;;;4917064;29;21205;-83
2021/11/26 05:52:51;;;;;;;885.80;803.97;;;4.30;99.90;;;;;;4917589;29;20471;-82
2021/11/26 05:55:20;;;;;;;874.87;794.77;;;4.40;99.90;;;;;;4917292;29;20468;-82
2021/11/26 05:57:47;;;;;;;874.67;794.70;;;4.40;99.90;;;;;;4917456;29;20830;-82
2021/11/26 06:00:16;;;;;;;895.63;814.40;;;4.40;99.90;;;;;;4916820;29;20484;-82
2021/11/26 06:02:43;;;;;;;897.60;816.00;;;4.40;99.90;;;;;;4917489;29;20466;-81
2021/11/26 06:05:12;;;;;;;897.93;816.67;;;4.30;99.90;;;;;;4916897;29;20510;-82
2021/11/26 06:07:39;;;;;;;901.37;819.70;;;4.40;99.90;;;;;;4918529;29;20454;-82
2021/11/26 06:10:08;;;;;;;894.60;813.57;;;4.40;99.90;;;;;;4917712;29;20457;-82
2021/11/26 06:12:35;;;;;;;892.90;811.07;;;4.40;99.90;;;;;;4918834;29;21018;-82
2021/11/26 06:15:02;;;;;;;890.83;809.37;;;4.40;99.90;;;;;;4918094;29;20465;-82
2021/11/26 06:17:29;;;;;;;891.70;809.87;;;4.40;99.90;;;;;;4917787;29;20836;-82
2021/11/26 06:19:56;;;;;;;877.90;798.57;;;4.40;99.90;;;;;;4918382;29;20463;-83
2021/11/26 06:22:24;;;;;;;876.07;797.07;;;4.30;99.90;;;;;;4918606;29;20478;-82
2021/11/26 06:24:50;;;;;;;857.60;780.20;;;4.40;99.90;;;;;;4917868;29;20489;-82
2021/11/26 06:27:17;;;;;;;858.77;780.97;;;4.30;99.90;;;;;;4918023;29;20468;-82
2021/11/26 06:29:44;;;;;;;851.53;774.50;;;4.30;99.90;;;;;;4917582;29;20462;-81
2021/11/26 06:32:11;;;;;;;853.07;776.43;;;4.30;99.90;;;;;;4917144;29;20488;-78
2021/11/26 06:34:38;;;;;;;857.87;781.70;;;4.30;99.90;;;;;;4917573;29;20851;-79
2021/11/26 06:37:05;;;;;;;842.60;765.73;;;4.30;99.90;;;;;;4917322;29;20457;-79
2021/11/26 06:39:33;;;;;;;832.23;757.47;;;4.40;99.90;;;;;;4917504;29;20458;-78
2021/11/26 06:42:00;;;;;;;832.47;758.50;;;4.30;99.90;;;;;;4916266;29;20488;-78
2021/11/26 06:44:27;;;;;;;847.43;771.63;;;4.30;99.90;;;;;;4916908;29;20472;-78
2021/11/26 06:46:54;;;;;;;791.60;717.50;;;4.30;99.90;;;;;;4917470;29;20460;-80
2021/11/26 06:49:20;;;;;;;821.47;744.77;;;4.30;99.90;;;;;;4918101;29;20848;-80
2021/11/26 06:51:47;;;;;;;830.37;753.10;;;4.20;99.90;;;;;;4917437;29;20482;-80
2021/11/26 06:54:14;;;;;;;829.90;753.07;;;4.30;99.90;;;;;;4917170;29;20453;-79
2021/11/26 06:56:42;;;;;;;829.50;751.83;;;4.30;99.90;;;;;;4917073;29;20485;-79
2021/11/26 06:59:09;;;;;;;836.97;759.60;;;4.20;99.90;;;;;;4917346;29;20461;-80
2021/11/26 07:01:36;;;;;;;828.17;751.50;;;4.20;99.90;;;;;;4916101;29;20507;-79
2021/11/26 07:04:03;;;;;;;826.70;749.80;;;4.30;99.90;;;;;;4916710;29;20457;-79
2021/11/26 07:06:29;;;;;;;853.03;774.90;;;4.30;99.90;;;;;;4916629;29;20453;-79
2021/11/26 07:08:56;;;;;;;851.47;774.77;;;4.30;99.90;;;;;;4916706;29;20472;-79
2021/11/26 07:11:23;;;;;;;839.30;762.80;;;4.30;99.90;;;;;;4918408;29;20504;-80
2021/11/26 07:13:51;;;;;;;850.47;773.50;;;4.40;99.90;;;;;;4916978;29;20462;-77
2021/11/26 07:16:19;;;;;;;833.70;758.20;;;4.30;99.90;;;;;;4916411;29;20875;-78
2021/11/26 07:18:46;;;;;;;806.00;732.03;;;4.30;99.90;;;;;;4919813;29;20988;-78
2021/11/26 07:21:13;;;;;;;792.53;719.97;;;4.40;99.90;;;;;;4919847;29;20481;-79
2021/11/26 07:23:40;;;;;;;800.57;725.87;;;4.30;99.90;;;;;;4920559;29;20468;-78
2021/11/26 07:26:07;;;;;;;808.27;734.20;;;4.20;99.90;;;;;;4920551;29;20822;-78
2021/11/26 07:28:34;;;;;;;822.20;747.33;;;4.30;99.90;;;;;;4920642;29;20457;-78
2021/11/26 07:31:02;;;;;;;816.87;741.57;;;4.20;99.90;;;;;;4919956;29;20489;-79
2021/11/26 07:33:29;;;;;;;801.17;727.97;;;4.20;99.90;;;;;;4919727;29;20475;-78
2021/11/26 07:35:56;;;;;;;798.07;725.13;;;4.20;99.90;;;;;;4919206;29;20485;-78
2021/11/26 07:38:22;;;;;;;776.13;705.43;;;4.20;99.90;;;;;;4919312;29;20466;-77
2021/11/26 07:40:52;;;;;;;771.17;700.70;;;4.20;99.90;;;;;;4919020;29;20477;-78
2021/11/26 07:43:19;;;;;;;788.80;720.40;;;4.20;99.90;;;;;;4919373;29;20458;-78
2021/11/26 07:45:46;;;;;;;787.33;719.67;;;4.20;99.90;;;;;;4919243;29;20460;-78
2021/11/26 07:48:15;;;;;;;791.87;723.73;;;4.20;99.90;;;;;;4918822;29;20559;-77
2021/11/26 07:50:41;;;;;;;775.50;707.23;;;4.20;99.90;;;;;;4918821;29;20880;-78
2021/11/26 07:53:08;;;;;;;775.57;708.60;;;4.20;99.90;;;;;;4919134;29;20985;-78
2021/11/26 07:55:35;;;;;;;775.57;706.37;;;4.30;99.90;;;;;;4919277;29;20492;-78
2021/11/26 07:58:03;;;;;;;786.50;716.40;;;4.30;99.90;;;;;;4918945;29;21001;-78
2021/11/26 08:00:29;;;;;;;797.13;729.03;;;4.40;99.90;;;;;;4918149;29;20516;-78
2021/11/26 08:02:58;;;;;;;782.93;716.93;;;4.50;99.90;;;;;;4919106;29;20833;-77
2021/11/26 08:05:26;;;;;;;792.70;725.07;;;4.40;99.90;;;;;;4918968;29;20481;-77
2021/11/26 08:07:53;;;;;;;789.23;721.93;;;4.40;99.90;;;;;;4919105;29;20466;-78
2021/11/26 08:10:20;;;;;;;787.43;723.10;;;4.40;99.90;;;;;;4918569;29;20958;-77
2021/11/26 08:12:47;;;;;;;809.13;744.03;;;4.40;99.90;;;;;;4919606;29;21094;-78
2021/11/26 08:15:16;;;;;;;790.37;728.23;;;4.50;99.90;;;;;;4918952;29;20488;-78
2021/11/26 08:17:43;;;;;;;773.87;714.70;;;4.40;99.90;;;;;;4919333;29;20464;-78
2021/11/26 08:20:17;;;;;;;773.37;714.77;;;4.40;99.90;;;;;;4919749;29;20457;-80
2021/11/26 08:22:47;;;;;;;771.43;713.43;;;4.40;99.90;;;;;;4918762;29;20496;-80
2021/11/26 08:25:22;;;;;;;793.90;734.93;;;4.40;99.90;;;;;;4908117;29;20473;-82
2021/11/26 08:27:50;;;;;;;790.50;730.17;;;4.40;99.90;;;;;;4918958;29;20512;-81
2021/11/26 08:30:18;;;;;;;802.40;741.17;;;4.40;99.90;;;;;;4918425;29;20446;-81
2021/11/26 08:32:55;;;;;;;792.17;732.80;;;4.50;99.90;;;;;;4918623;29;20458;-83
2021/11/26 08:35:24;;;;;;;793.80;733.60;;;4.40;99.90;;;;;;4918414;29;20457;-83
2021/11/26 08:38:06;;;;;;;795.10;735.20;;;4.50;99.90;;;;;;4919128;29;20458;-83
2021/11/26 08:40:36;;;;;;;788.37;728.37;;;4.50;99.90;;;;;;4919266;29;20478;-83
2021/11/26 08:43:08;;;;;;;784.20;726.07;;;4.50;99.90;;;;;;4919993;29;20518;-83
2021/11/26 08:45:37;;;;;;;769.37;713.53;;;4.50;99.90;;;;;;4921015;29;20469;-83
2021/11/26 08:48:04;;;;;;;766.97;714.10;;;4.60;99.90;;;;;;4919601;29;20827;-84
2021/11/26 08:50:33;;;;;;;756.17;704.67;;;4.50;99.90;;;;;;4917999;29;20847;-85
2021/11/26 08:53:08;;;;;;;760.40;708.73;;;4.60;99.90;;;;;;4918408;29;20560;-82
2021/11/26 08:55:39;;;;;;;754.03;703.80;;;4.60;99.90;;;;;;4918713;29;20560;-82
2021/11/26 08:58:09;;;;;;;730.45;681.05;;;4.60;99.90;;;;;;4918015;29;20506;-84
2021/11/26 09:00:37;;;;;;;695.93;654.97;;;4.70;99.90;;;;;;4918190;29;20222;-83
2021/11/26 09:03:09;;;;;;;706.83;664.13;;;4.70;99.90;;;;;;4918967;29;20454;-83
2021/11/26 09:05:50;;;;;;;691.13;650.33;;;4.70;99.90;;;;;;4918496;29;20488;-83
2021/11/26 09:08:29;;;;;;;696.77;654.63;;;4.70;99.90;;;;;;4918504;29;20524;-83
2021/11/26 09:10:59;;;;;;;669.57;633.67;;;4.70;99.90;;;;;;4918344;29;20470;-83
2021/11/26 09:13:37;;;;;;;579.80;553.30;;;4.70;99.90;;;;;;4918966;29;20454;-83
2021/11/26 09:18:54;;;;;;;431.03;413.60;;;4.80;99.90;;;;;;4918780;29;20456;-83
2021/11/26 09:21:48;;;;;;;490.60;469.50;;;4.70;99.90;;;;;;4918079;29;20997;-83
2021/11/26 09:24:27;;;;;;;509.47;486.57;;;4.70;99.90;;;;;;4917212;29;20877;-83
2021/11/26 09:27:12;;;;;;;491.27;470.77;;;4.80;99.90;;;;;;4918887;29;20541;-83
2021/11/26 09:29:46;;;;;;;531.03;507.53;;;4.80;99.90;;;;;;4917776;29;20457;-83
2021/11/26 09:32:14;;;;;;;418.17;401.53;;;4.70;99.90;;;;;;4918021;29;20525;-83
2021/11/26 09:35:06;;;;;;;424.73;407.13;;;4.80;99.90;;;;;;4917687;29;20458;-83
2021/11/26 09:37:45;;;;;;;324.40;311.27;;;4.90;99.90;;;;;;4918585;29;20446;-83
2021/11/26 09:40:20;;;;;;;256.10;246.30;;;4.80;99.90;;;;;;4917016;29;20875;-83
2021/11/26 09:42:57;;;;;;;286.23;271.43;;;4.90;99.90;;;;;;4917979;29;20465;-83
2021/11/26 09:45:39;;;;;;;265.43;254.93;;;4.90;99.90;;;;;;4917904;29;20458;-83
2021/11/26 09:48:11;;;;;;;59.53;54.83;;;4.80;99.90;;;;;;4918705;29;20454;-83
2021/11/26 09:50:52;;;;;;;38.60;34.70;;;4.80;97.80;;;;;;4918009;29;20478;-83
2021/11/26 09:56:40;;;;;;;29.90;21.20;;;4.90;93.80;;;;;;4917679;29;20460;-84
2021/11/26 09:59:50;;;;;;;;;;;;;;;;;;;;;
2021/11/26 10:05:55;;;;;;;31.27;20.17;;;4.90;91.30;;;;;;4877034;29;20462;-84
2021/11/26 10:12:23;;;;;;;46.17;26.20;;;4.90;91.40;;;;;;4907138;29;20839;-84
2021/11/26 10:15:32;;;;;;;40.27;23.20;;;5.00;91.30;;;;;;4896859;29;20458;-85
2021/11/26 10:37:24;;;;;;;31.40;11.20;;;5.00;79.40;;;;;;4917293;29;20489;-81
2021/11/26 10:39:52;;;;;;;19.13;8.47;;;5.10;76.20;;;;;;4918308;29;20540;-80
2021/11/26 10:42:30;;;;;;;20.93;9.47;;;5.10;75.50;;;;;;4918275;29;21041;-81
2021/11/26 10:45:04;;;;;;;18.37;9.13;;;5.10;77.20;;;;;;4917863;29;20489;-81
2021/11/26 10:47:46;;;;;;;16.37;9.50;;;5.10;75.60;;;;;;4917226;29;20473;-81
2021/11/26 10:58:50;;;;;;;18.33;9.52;;;5.40;75.60;;;;;;4916379;29;20810;-80
2021/11/26 11:01:20;;;;;;;17.83;8.40;;;5.40;76.20;;;;;;4916935;29;20793;-80
2021/11/26 11:03:49;;;;;;;13.00;7.03;;;5.40;70.00;;;;;;4918040;29;20901;-79
2021/11/26 11:06:17;;;;;;;17.80;7.80;;;5.30;73.90;;;;;;4917427;29;20521;-80
2021/11/26 11:08:46;;;;;;;15.03;8.10;;;5.30;76.50;;;;;;4916278;29;20502;-79
2021/11/26 11:11:13;;;;;;;15.47;7.30;;;5.40;72.90;;;;;;4916083;29;20865;-79
2021/11/26 11:16:15;;;;;;;17.43;8.37;;;5.30;76.40;;;;;;6017898;23;20373;31
2021/11/26 11:18:41;;;;;;;11.80;7.00;;;5.30;75.60;;;;;;4914930;29;20842;-83
2021/11/26 11:21:10;;;;;;;17.87;11.03;;;5.30;73.90;;;;;;4914667;29;20478;-83
2021/11/26 11:23:40;;;;;;;18.30;7.43;;;5.30;69.70;;;;;;4915846;29;20553;-83
2021/11/26 11:26:13;;;;;;;17.43;7.47;;;5.50;69.50;;;;;;4915548;29;20466;-84
2021/11/26 11:28:42;;;;;;;21.30;7.80;;;5.40;71.30;;;;;;4896884;29;20466;-84
2021/11/26 11:31:09;;;;;;;13.93;7.57;;;5.50;68.80;;;;;;4897345;29;20458;-83
2021/11/26 11:33:36;;;;;;;17.00;8.60;;;5.50;71.50;;;;;;4896525;29;20469;-84
2021/11/26 11:36:06;;;;;;;19.70;7.57;;;5.60;74.20;;;;;;4896493;29;20609;-83
2021/11/26 11:38:35;;;;;;;19.60;7.87;;;5.60;71.20;;;;;;4896517;29;20557;-84
2021/11/26 11:41:22;;;;;;;22.73;7.03;;;5.70;72.30;;;;;;4896620;29;20541;-84
2021/11/26 11:43:49;;;;;;;14.23;6.87;;;5.70;72.60;;;;;;4896831;29;21021;-83
2021/11/26 11:46:17;;;;;;;13.43;5.83;;;5.60;72.30;;;;;;4897987;29;20983;-83
2021/11/26 11:48:55;;;;;;;10.70;6.80;;;5.60;73.40;;;;;;4897756;29;20462;-83
2021/11/26 11:51:34;;;;;;;17.70;7.80;;;5.60;71.70;;;;;;4897181;29;20461;-83
2021/11/26 11:54:12;;;;;;;12.07;6.27;;;5.50;72.20;;;;;;4896873;29;20514;-84
2021/11/26 11:56:44;;;;;;;16.80;7.70;;;5.50;72.30;;;;;;4896425;29;20491;-84
2021/11/26 11:59:13;;;;;;;21.97;7.70;;;5.50;73.30;;;;;;4896671;29;20470;-82
2021/11/26 12:01:45;;;;;;;12.70;6.20;;;5.60;74.20;;;;;;4897559;29;20454;-83
2021/11/26 12:04:18;;;;;;;14.03;6.87;;;5.50;72.30;;;;;;4898575;29;20842;-85
2021/11/26 12:06:46;;;;;;;13.27;6.83;;;5.60;74.20;;;;;;4899683;29;20492;-84
2021/11/26 12:09:24;;;;;;;19.43;6.77;;;5.70;71.90;;;;;;4899949;29;20469;-84
2021/11/26 12:12:05;;;;;;;12.47;6.40;;;5.70;72.90;;;;;;4899924;29;20962;-84
2021/11/26 12:14:43;;;;;;;12.13;5.23;;;5.60;72.60;;;;;;4900342;29;20472;-84
2021/11/26 12:20:25;;;;;;;17.13;7.07;;;5.70;71.90;;;;;;4896188;29;20462;-85
2021/11/26 12:23:36;;;;;;;11.73;4.37;;;5.80;72.20;;;;;;4899861;29;20522;-85
2021/11/26 12:28:53;;;;;;;14.35;5.10;;;5.80;70.60;;;;;;4969458;23;20466;-85
2021/11/26 12:31:32;;;;;;;31.67;6.30;;;5.90;70.60;;;;;;4918377;29;20880;-85
2021/11/26 12:34:08;;;;;;;11.80;5.23;;;5.90;69.70;;;;;;4918930;29;20469;-84
2021/11/26 12:36:51;;;;;;;19.83;6.07;;;5.80;69.90;;;;;;4918616;29;20509;-81
2021/11/26 12:39:21;;;;;;;8.13;4.20;;;5.90;71.60;;;;;;4919978;29;20469;-83
2021/11/26 12:41:50;;;;;;;6.78;3.00;;;5.80;69.60;;;;;;4918876;29;20947;-82
2021/11/26 12:44:20;;;;;;;12.10;3.67;;;5.70;68.70;;;;;;4919616;29;20212;-83
2021/11/26 12:46:56;;;;;;;8.67;4.50;;;5.70;70.00;;;;;;4918095;29;20520;-84
2021/11/26 12:52:08;;;;;;;5.63;3.17;;;5.70;72.20;;;;;;4925485;29;20449;-82
2021/11/26 12:54:37;;;;;;;11.80;3.67;;;5.70;72.70;;;;;;4926641;29;20457;-83
2021/11/26 12:57:06;;;;;;;7.07;2.90;;;5.70;72.20;;;;;;4924576;29;20476;-81
2021/11/26 12:59:39;;;;;;;7.13;3.37;;;5.60;72.30;;;;;;4926306;29;20683;-81
2021/11/26 13:02:09;;;;;;;7.67;3.27;;;5.70;71.00;;;;;;4923928;29;20456;-84
2021/11/26 13:04:46;;;;;;;9.70;3.07;;;5.60;71.60;;;;;;4922854;29;20453;-84
2021/11/26 13:07:13;;;;;;;9.70;3.40;;;5.60;70.70;;;;;;4924223;29;20501;-84
2021/11/26 13:09:46;;;;;;;11.20;4.17;;;5.60;70.80;;;;;;4924421;29;20458;-84
2021/11/26 13:12:14;;;;;;;8.40;2.33;;;5.60;70.00;;;;;;4925475;29;20473;-84
2021/11/26 13:14:57;;;;;;;6.17;2.47;;;5.70;67.30;;;;;;4925007;29;20462;-84
2021/11/26 13:17:32;;;;;;;6.00;2.50;;;5.80;68.20;;;;;;4924839;29;20488;-85
2021/11/26 13:20:08;;;;;;;7.20;2.30;;;5.70;67.20;;;;;;4926170;29;20461;-84
2021/11/26 13:22:52;;;;;;;5.93;2.43;;;5.80;69.40;;;;;;4926026;29;20460;-84
2021/11/26 13:25:21;;;;;;;5.70;2.20;;;5.80;67.90;;;;;;4926166;29;20489;-84
2021/11/26 13:27:53;;;;;;;11.27;2.30;;;5.80;68.30;;;;;;4926600;29;20481;-84
2021/11/26 13:30:24;;;;;;;7.63;2.27;;;5.80;66.10;;;;;;4925789;29;20457;-85